sensor_id;sensor_type;location;lat;lon;timestamp;P1;durP1;ratioP1;P2;durP2;ratioP2
14294;SDS011;7231;59.370;18.016;2022-08-21T00:01:04;2.75;;;1.17;;
14294;SDS011;7231;59.370;18.016;2022-08-21T00:03:37;3.47;;;1.02;;
14294;SDS011;7231;59.370;18.016;2022-08-21T00:06:05;4.85;;;1.38;;
14294;SDS011;7231;59.370;18.016;2022-08-21T00:08:39;3.78;;;1.15;;
14294;SDS011;7231;59.370;18.016;2022-08-21T00:11:07;2.92;;;1.10;;
14294;SDS011;7231;59.370;18.016;2022-08-21T00:13:39;3.13;;;1.15;;
14294;SDS011;7231;59.370;18.016;2022-08-21T00:16:08;5.47;;;1.40;;
14294;SDS011;7231;59.370;18.016;2022-08-21T00:18:37;3.83;;;1.20;;
14294;SDS011;7231;59.370;18.016;2022-08-21T00:21:05;4.45;;;1.27;;
14294;SDS011;7231;59.370;18.016;2022-08-21T00:23:34;4.50;;;1.20;;
14294;SDS011;7231;59.370;18.016;2022-08-21T00:26:02;4.13;;;1.00;;
14294;SDS011;7231;59.370;18.016;2022-08-21T00:28:32;3.47;;;1.35;;
14294;SDS011;7231;59.370;18.016;2022-08-21T00:31:02;5.00;;;1.40;;
14294;SDS011;7231;59.370;18.016;2022-08-21T00:33:31;3.63;;;1.45;;
14294;SDS011;7231;59.370;18.016;2022-08-21T00:35:59;4.50;;;1.40;;
14294;SDS011;7231;59.370;18.016;2022-08-21T00:38:28;3.53;;;1.05;;
14294;SDS011;7231;59.370;18.016;2022-08-21T00:40:57;4.88;;;1.20;;
14294;SDS011;7231;59.370;18.016;2022-08-21T00:43:47;3.88;;;1.10;;
14294;SDS011;7231;59.370;18.016;2022-08-21T00:46:16;5.60;;;1.33;;
14294;SDS011;7231;59.370;18.016;2022-08-21T00:48:44;4.68;;;1.30;;
14294;SDS011;7231;59.370;18.016;2022-08-21T00:51:13;7.22;;;1.50;;
14294;SDS011;7231;59.370;18.016;2022-08-21T00:53:49;6.90;;;1.63;;
14294;SDS011;7231;59.370;18.016;2022-08-21T00:56:21;4.97;;;1.23;;
14294;SDS011;7231;59.370;18.016;2022-08-21T00:58:52;4.70;;;1.17;;
14294;SDS011;7231;59.370;18.016;2022-08-21T01:01:22;4.25;;;1.27;;
14294;SDS011;7231;59.370;18.016;2022-08-21T01:03:51;4.60;;;1.10;;
14294;SDS011;7231;59.370;18.016;2022-08-21T01:06:19;7.50;;;1.77;;
14294;SDS011;7231;59.370;18.016;2022-08-21T01:08:47;2.72;;;1.15;;
14294;SDS011;7231;59.370;18.016;2022-08-21T01:11:15;9.07;;;1.67;;
14294;SDS011;7231;59.370;18.016;2022-08-21T01:13:44;5.22;;;1.25;;
14294;SDS011;7231;59.370;18.016;2022-08-21T01:16:13;5.30;;;1.13;;
14294;SDS011;7231;59.370;18.016;2022-08-21T01:18:50;6.15;;;1.67;;
14294;SDS011;7231;59.370;18.016;2022-08-21T01:21:20;5.07;;;1.60;;
14294;SDS011;7231;59.370;18.016;2022-08-21T01:23:54;6.18;;;1.30;;
14294;SDS011;7231;59.370;18.016;2022-08-21T01:26:24;4.65;;;1.27;;
14294;SDS011;7231;59.370;18.016;2022-08-21T01:29:00;7.93;;;1.73;;
14294;SDS011;7231;59.370;18.016;2022-08-21T01:31:32;6.03;;;1.33;;
14294;SDS011;7231;59.370;18.016;2022-08-21T01:34:01;8.80;;;1.75;;
14294;SDS011;7231;59.370;18.016;2022-08-21T01:36:31;3.80;;;1.42;;
14294;SDS011;7231;59.370;18.016;2022-08-21T01:39:00;8.02;;;1.60;;
14294;SDS011;7231;59.370;18.016;2022-08-21T01:41:28;6.43;;;1.17;;
14294;SDS011;7231;59.370;18.016;2022-08-21T01:43:56;3.92;;;1.42;;
14294;SDS011;7231;59.370;18.016;2022-08-21T01:46:25;4.63;;;1.48;;
14294;SDS011;7231;59.370;18.016;2022-08-21T01:48:53;7.18;;;1.67;;
14294;SDS011;7231;59.370;18.016;2022-08-21T01:51:21;6.75;;;1.85;;
14294;SDS011;7231;59.370;18.016;2022-08-21T01:53:51;2.55;;;1.23;;
14294;SDS011;7231;59.370;18.016;2022-08-21T01:56:19;6.70;;;1.35;;
14294;SDS011;7231;59.370;18.016;2022-08-21T01:58:48;7.30;;;1.23;;
14294;SDS011;7231;59.370;18.016;2022-08-21T02:01:16;6.15;;;1.38;;
14294;SDS011;7231;59.370;18.016;2022-08-21T02:03:44;5.45;;;1.67;;
14294;SDS011;7231;59.370;18.016;2022-08-21T02:06:13;5.70;;;1.60;;
14294;SDS011;7231;59.370;18.016;2022-08-21T02:08:44;7.30;;;1.63;;
14294;SDS011;7231;59.370;18.016;2022-08-21T02:11:14;4.18;;;1.20;;
14294;SDS011;7231;59.370;18.016;2022-08-21T02:13:42;5.68;;;1.55;;
14294;SDS011;7231;59.370;18.016;2022-08-21T02:16:11;5.10;;;1.38;;
14294;SDS011;7231;59.370;18.016;2022-08-21T02:18:45;7.03;;;1.80;;
14294;SDS011;7231;59.370;18.016;2022-08-21T02:21:13;7.40;;;1.52;;
14294;SDS011;7231;59.370;18.016;2022-08-21T02:23:41;5.97;;;1.58;;
14294;SDS011;7231;59.370;18.016;2022-08-21T02:26:10;10.95;;;1.85;;
14294;SDS011;7231;59.370;18.016;2022-08-21T02:28:40;5.03;;;1.50;;
14294;SDS011;7231;59.370;18.016;2022-08-21T02:31:09;5.63;;;1.50;;
14294;SDS011;7231;59.370;18.016;2022-08-21T02:33:37;7.32;;;1.83;;
14294;SDS011;7231;59.370;18.016;2022-08-21T02:36:05;6.30;;;1.70;;
14294;SDS011;7231;59.370;18.016;2022-08-21T02:38:35;5.18;;;1.60;;
14294;SDS011;7231;59.370;18.016;2022-08-21T02:41:05;8.30;;;2.13;;
14294;SDS011;7231;59.370;18.016;2022-08-21T02:43:35;6.70;;;1.63;;
14294;SDS011;7231;59.370;18.016;2022-08-21T02:46:05;8.27;;;1.90;;
14294;SDS011;7231;59.370;18.016;2022-08-21T02:48:34;6.38;;;1.65;;
14294;SDS011;7231;59.370;18.016;2022-08-21T02:51:04;6.45;;;1.50;;
14294;SDS011;7231;59.370;18.016;2022-08-21T02:53:33;7.78;;;1.38;;
14294;SDS011;7231;59.370;18.016;2022-08-21T02:56:03;7.00;;;2.05;;
14294;SDS011;7231;59.370;18.016;2022-08-21T02:58:36;8.35;;;1.70;;
14294;SDS011;7231;59.370;18.016;2022-08-21T03:01:08;5.00;;;1.40;;
14294;SDS011;7231;59.370;18.016;2022-08-21T03:03:37;7.82;;;1.98;;
14294;SDS011;7231;59.370;18.016;2022-08-21T03:06:07;6.60;;;1.67;;
14294;SDS011;7231;59.370;18.016;2022-08-21T03:08:36;12.27;;;2.15;;
14294;SDS011;7231;59.370;18.016;2022-08-21T03:11:05;8.40;;;2.17;;
14294;SDS011;7231;59.370;18.016;2022-08-21T03:13:35;6.93;;;1.60;;
14294;SDS011;7231;59.370;18.016;2022-08-21T03:16:03;9.05;;;1.70;;
14294;SDS011;7231;59.370;18.016;2022-08-21T03:18:37;6.72;;;1.80;;
14294;SDS011;7231;59.370;18.016;2022-08-21T03:21:05;7.53;;;1.90;;
14294;SDS011;7231;59.370;18.016;2022-08-21T03:23:34;11.32;;;1.92;;
14294;SDS011;7231;59.370;18.016;2022-08-21T03:26:02;7.80;;;1.77;;
14294;SDS011;7231;59.370;18.016;2022-08-21T03:28:33;9.65;;;1.95;;
14294;SDS011;7231;59.370;18.016;2022-08-21T03:31:01;4.50;;;1.70;;
14294;SDS011;7231;59.370;18.016;2022-08-21T03:33:29;4.00;;;1.60;;
14294;SDS011;7231;59.370;18.016;2022-08-21T03:35:59;7.18;;;1.60;;
14294;SDS011;7231;59.370;18.016;2022-08-21T03:38:31;6.15;;;1.77;;
14294;SDS011;7231;59.370;18.016;2022-08-21T03:41:01;4.45;;;1.58;;
14294;SDS011;7231;59.370;18.016;2022-08-21T03:43:31;6.10;;;1.83;;
14294;SDS011;7231;59.370;18.016;2022-08-21T03:46:00;4.30;;;1.50;;
14294;SDS011;7231;59.370;18.016;2022-08-21T03:48:29;10.88;;;1.98;;
14294;SDS011;7231;59.370;18.016;2022-08-21T03:50:59;7.18;;;1.90;;
14294;SDS011;7231;59.370;18.016;2022-08-21T03:53:27;7.93;;;1.67;;
14294;SDS011;7231;59.370;18.016;2022-08-21T03:55:56;12.93;;;2.03;;
14294;SDS011;7231;59.370;18.016;2022-08-21T03:58:25;8.50;;;2.15;;
14294;SDS011;7231;59.370;18.016;2022-08-21T04:00:56;10.48;;;2.00;;
14294;SDS011;7231;59.370;18.016;2022-08-21T04:03:26;10.10;;;1.83;;
14294;SDS011;7231;59.370;18.016;2022-08-21T04:05:55;9.20;;;2.25;;
14294;SDS011;7231;59.370;18.016;2022-08-21T04:08:24;5.10;;;1.75;;
14294;SDS011;7231;59.370;18.016;2022-08-21T04:10:54;8.07;;;2.20;;
14294;SDS011;7231;59.370;18.016;2022-08-21T04:13:24;5.88;;;2.03;;
14294;SDS011;7231;59.370;18.016;2022-08-21T04:15:54;10.27;;;1.90;;
14294;SDS011;7231;59.370;18.016;2022-08-21T04:18:22;7.75;;;2.20;;
14294;SDS011;7231;59.370;18.016;2022-08-21T04:20:51;6.80;;;2.25;;
14294;SDS011;7231;59.370;18.016;2022-08-21T04:23:21;7.15;;;2.15;;
14294;SDS011;7231;59.370;18.016;2022-08-21T04:25:51;7.57;;;1.92;;
14294;SDS011;7231;59.370;18.016;2022-08-21T04:28:22;9.13;;;2.47;;
14294;SDS011;7231;59.370;18.016;2022-08-21T04:30:55;7.00;;;1.90;;
14294;SDS011;7231;59.370;18.016;2022-08-21T04:33:24;6.88;;;1.85;;
14294;SDS011;7231;59.370;18.016;2022-08-21T04:35:52;6.55;;;1.80;;
14294;SDS011;7231;59.370;18.016;2022-08-21T04:38:20;8.90;;;2.17;;
14294;SDS011;7231;59.370;18.016;2022-08-21T04:40:49;5.85;;;1.80;;
14294;SDS011;7231;59.370;18.016;2022-08-21T04:43:19;9.85;;;1.70;;
14294;SDS011;7231;59.370;18.016;2022-08-21T04:45:50;8.13;;;2.05;;
14294;SDS011;7231;59.370;18.016;2022-08-21T04:48:20;6.03;;;1.80;;
14294;SDS011;7231;59.370;18.016;2022-08-21T04:50:51;8.25;;;1.80;;
14294;SDS011;7231;59.370;18.016;2022-08-21T04:53:24;4.88;;;1.88;;
14294;SDS011;7231;59.370;18.016;2022-08-21T04:55:55;5.93;;;1.85;;
14294;SDS011;7231;59.370;18.016;2022-08-21T04:58:26;7.00;;;1.90;;
14294;SDS011;7231;59.370;18.016;2022-08-21T05:00:57;7.03;;;2.13;;
14294;SDS011;7231;59.370;18.016;2022-08-21T05:03:25;6.65;;;1.88;;
14294;SDS011;7231;59.370;18.016;2022-08-21T05:05:55;7.43;;;2.00;;
14294;SDS011;7231;59.370;18.016;2022-08-21T05:08:23;5.93;;;1.70;;
14294;SDS011;7231;59.370;18.016;2022-08-21T05:10:54;7.63;;;1.92;;
14294;SDS011;7231;59.370;18.016;2022-08-21T05:13:27;5.15;;;1.80;;
14294;SDS011;7231;59.370;18.016;2022-08-21T05:15:55;9.77;;;2.10;;
14294;SDS011;7231;59.370;18.016;2022-08-21T05:18:24;8.68;;;2.40;;
14294;SDS011;7231;59.370;18.016;2022-08-21T05:20:52;5.32;;;1.80;;
14294;SDS011;7231;59.370;18.016;2022-08-21T05:23:20;7.93;;;2.05;;
14294;SDS011;7231;59.370;18.016;2022-08-21T05:25:48;9.35;;;2.17;;
14294;SDS011;7231;59.370;18.016;2022-08-21T05:28:16;5.97;;;1.90;;
14294;SDS011;7231;59.370;18.016;2022-08-21T05:30:46;10.10;;;2.40;;
14294;SDS011;7231;59.370;18.016;2022-08-21T05:33:15;8.52;;;2.10;;
14294;SDS011;7231;59.370;18.016;2022-08-21T05:35:43;8.18;;;2.00;;
14294;SDS011;7231;59.370;18.016;2022-08-21T05:38:11;9.07;;;1.75;;
14294;SDS011;7231;59.370;18.016;2022-08-21T05:40:43;8.70;;;1.80;;
14294;SDS011;7231;59.370;18.016;2022-08-21T05:43:12;9.25;;;2.10;;
14294;SDS011;7231;59.370;18.016;2022-08-21T05:45:41;8.13;;;2.03;;
14294;SDS011;7231;59.370;18.016;2022-08-21T05:48:12;9.43;;;1.92;;
14294;SDS011;7231;59.370;18.016;2022-08-21T05:50:43;10.63;;;2.33;;
14294;SDS011;7231;59.370;18.016;2022-08-21T05:53:13;9.93;;;2.03;;
14294;SDS011;7231;59.370;18.016;2022-08-21T05:55:42;7.40;;;2.00;;
14294;SDS011;7231;59.370;18.016;2022-08-21T05:58:12;6.95;;;2.05;;
14294;SDS011;7231;59.370;18.016;2022-08-21T06:00:41;8.13;;;1.65;;
14294;SDS011;7231;59.370;18.016;2022-08-21T06:03:14;7.38;;;2.25;;
14294;SDS011;7231;59.370;18.016;2022-08-21T06:05:44;9.73;;;2.78;;
14294;SDS011;7231;59.370;18.016;2022-08-21T06:08:13;11.95;;;2.42;;
14294;SDS011;7231;59.370;18.016;2022-08-21T06:10:42;6.82;;;1.80;;
14294;SDS011;7231;59.370;18.016;2022-08-21T06:13:10;6.57;;;1.85;;
14294;SDS011;7231;59.370;18.016;2022-08-21T06:15:39;7.47;;;1.83;;
14294;SDS011;7231;59.370;18.016;2022-08-21T06:18:07;9.27;;;2.00;;
14294;SDS011;7231;59.370;18.016;2022-08-21T06:20:37;5.85;;;2.30;;
14294;SDS011;7231;59.370;18.016;2022-08-21T06:23:05;6.00;;;1.60;;
14294;SDS011;7231;59.370;18.016;2022-08-21T06:25:33;8.48;;;1.80;;
14294;SDS011;7231;59.370;18.016;2022-08-21T06:28:02;5.32;;;1.75;;
14294;SDS011;7231;59.370;18.016;2022-08-21T06:30:32;6.93;;;2.22;;
14294;SDS011;7231;59.370;18.016;2022-08-21T06:33:00;5.57;;;1.63;;
14294;SDS011;7231;59.370;18.016;2022-08-21T06:35:29;13.13;;;2.30;;
14294;SDS011;7231;59.370;18.016;2022-08-21T06:37:59;9.63;;;2.10;;
14294;SDS011;7231;59.370;18.016;2022-08-21T06:40:27;7.07;;;1.65;;
14294;SDS011;7231;59.370;18.016;2022-08-21T06:43:04;8.10;;;2.75;;
14294;SDS011;7231;59.370;18.016;2022-08-21T06:45:34;9.05;;;2.00;;
14294;SDS011;7231;59.370;18.016;2022-08-21T06:48:02;9.50;;;2.22;;
14294;SDS011;7231;59.370;18.016;2022-08-21T06:50:30;8.88;;;2.00;;
14294;SDS011;7231;59.370;18.016;2022-08-21T06:53:00;8.65;;;2.25;;
14294;SDS011;7231;59.370;18.016;2022-08-21T06:55:32;9.85;;;2.45;;
14294;SDS011;7231;59.370;18.016;2022-08-21T06:58:00;7.38;;;1.88;;
14294;SDS011;7231;59.370;18.016;2022-08-21T07:00:28;9.40;;;2.40;;
14294;SDS011;7231;59.370;18.016;2022-08-21T07:02:57;8.80;;;1.98;;
14294;SDS011;7231;59.370;18.016;2022-08-21T07:05:26;6.05;;;2.20;;
14294;SDS011;7231;59.370;18.016;2022-08-21T07:07:54;8.00;;;2.10;;
14294;SDS011;7231;59.370;18.016;2022-08-21T07:10:24;10.60;;;2.67;;
14294;SDS011;7231;59.370;18.016;2022-08-21T07:12:53;10.75;;;2.67;;
14294;SDS011;7231;59.370;18.016;2022-08-21T07:15:26;5.78;;;2.38;;
14294;SDS011;7231;59.370;18.016;2022-08-21T07:17:56;7.50;;;1.85;;
14294;SDS011;7231;59.370;18.016;2022-08-21T07:20:25;6.68;;;2.08;;
14294;SDS011;7231;59.370;18.016;2022-08-21T07:22:53;6.68;;;1.73;;
14294;SDS011;7231;59.370;18.016;2022-08-21T07:25:22;8.57;;;2.13;;
14294;SDS011;7231;59.370;18.016;2022-08-21T07:27:51;6.20;;;2.22;;
14294;SDS011;7231;59.370;18.016;2022-08-21T07:30:19;6.65;;;1.85;;
14294;SDS011;7231;59.370;18.016;2022-08-21T07:32:48;9.82;;;1.80;;
14294;SDS011;7231;59.370;18.016;2022-08-21T07:35:17;7.22;;;1.80;;
14294;SDS011;7231;59.370;18.016;2022-08-21T07:37:45;7.88;;;2.20;;
14294;SDS011;7231;59.370;18.016;2022-08-21T07:40:15;7.75;;;1.92;;
14294;SDS011;7231;59.370;18.016;2022-08-21T07:42:44;7.82;;;1.98;;
14294;SDS011;7231;59.370;18.016;2022-08-21T07:45:18;7.63;;;2.03;;
14294;SDS011;7231;59.370;18.016;2022-08-21T07:47:47;4.70;;;1.80;;
14294;SDS011;7231;59.370;18.016;2022-08-21T07:50:22;7.65;;;2.17;;
14294;SDS011;7231;59.370;18.016;2022-08-21T07:52:50;8.48;;;2.08;;
14294;SDS011;7231;59.370;18.016;2022-08-21T07:55:19;5.43;;;1.55;;
14294;SDS011;7231;59.370;18.016;2022-08-21T07:57:48;7.47;;;1.98;;
14294;SDS011;7231;59.370;18.016;2022-08-21T08:00:18;8.30;;;2.15;;
14294;SDS011;7231;59.370;18.016;2022-08-21T08:02:49;6.82;;;2.13;;
14294;SDS011;7231;59.370;18.016;2022-08-21T08:05:19;5.40;;;1.92;;
14294;SDS011;7231;59.370;18.016;2022-08-21T08:07:49;5.50;;;1.80;;
14294;SDS011;7231;59.370;18.016;2022-08-21T08:10:17;4.90;;;1.77;;
14294;SDS011;7231;59.370;18.016;2022-08-21T08:12:46;6.90;;;2.00;;
14294;SDS011;7231;59.370;18.016;2022-08-21T08:15:16;7.78;;;1.88;;
14294;SDS011;7231;59.370;18.016;2022-08-21T08:17:48;6.53;;;2.03;;
14294;SDS011;7231;59.370;18.016;2022-08-21T08:20:17;6.32;;;1.73;;
14294;SDS011;7231;59.370;18.016;2022-08-21T08:22:46;5.47;;;1.33;;
14294;SDS011;7231;59.370;18.016;2022-08-21T08:25:16;5.28;;;1.90;;
14294;SDS011;7231;59.370;18.016;2022-08-21T08:27:44;6.22;;;1.90;;
14294;SDS011;7231;59.370;18.016;2022-08-21T08:30:13;6.60;;;1.63;;
14294;SDS011;7231;59.370;18.016;2022-08-21T08:32:44;3.90;;;1.77;;
14294;SDS011;7231;59.370;18.016;2022-08-21T08:35:13;6.15;;;1.60;;
14294;SDS011;7231;59.370;18.016;2022-08-21T08:37:42;5.53;;;2.15;;
14294;SDS011;7231;59.370;18.016;2022-08-21T08:40:19;8.43;;;1.95;;
14294;SDS011;7231;59.370;18.016;2022-08-21T08:42:56;7.25;;;1.60;;
14294;SDS011;7231;59.370;18.016;2022-08-21T08:45:25;6.28;;;1.58;;
14294;SDS011;7231;59.370;18.016;2022-08-21T08:47:56;6.97;;;2.20;;
14294;SDS011;7231;59.370;18.016;2022-08-21T08:50:31;6.40;;;1.63;;
14294;SDS011;7231;59.370;18.016;2022-08-21T08:53:06;7.03;;;2.00;;
14294;SDS011;7231;59.370;18.016;2022-08-21T08:55:39;5.55;;;2.00;;
14294;SDS011;7231;59.370;18.016;2022-08-21T08:58:10;5.55;;;2.00;;
14294;SDS011;7231;59.370;18.016;2022-08-21T09:00:43;4.00;;;1.65;;
14294;SDS011;7231;59.370;18.016;2022-08-21T09:03:17;6.15;;;1.85;;
14294;SDS011;7231;59.370;18.016;2022-08-21T09:05:46;5.88;;;1.67;;
14294;SDS011;7231;59.370;18.016;2022-08-21T09:08:24;10.27;;;1.42;;
14294;SDS011;7231;59.370;18.016;2022-08-21T09:11:02;5.82;;;1.70;;
14294;SDS011;7231;59.370;18.016;2022-08-21T09:13:39;8.07;;;2.00;;
14294;SDS011;7231;59.370;18.016;2022-08-21T09:16:19;4.75;;;1.77;;
14294;SDS011;7231;59.370;18.016;2022-08-21T09:18:58;6.63;;;1.70;;
14294;SDS011;7231;59.370;18.016;2022-08-21T09:21:35;6.45;;;1.63;;
14294;SDS011;7231;59.370;18.016;2022-08-21T09:24:17;5.55;;;2.13;;
14294;SDS011;7231;59.370;18.016;2022-08-21T09:26:53;4.10;;;1.50;;
14294;SDS011;7231;59.370;18.016;2022-08-21T09:29:32;5.18;;;1.38;;
14294;SDS011;7231;59.370;18.016;2022-08-21T09:32:03;6.88;;;2.05;;
14294;SDS011;7231;59.370;18.016;2022-08-21T09:34:55;3.88;;;1.42;;
14294;SDS011;7231;59.370;18.016;2022-08-21T09:37:26;5.07;;;1.48;;
14294;SDS011;7231;59.370;18.016;2022-08-21T09:39:56;5.57;;;1.67;;
14294;SDS011;7231;59.370;18.016;2022-08-21T09:42:26;5.57;;;1.58;;
14294;SDS011;7231;59.370;18.016;2022-08-21T09:45:05;3.78;;;1.58;;
14294;SDS011;7231;59.370;18.016;2022-08-21T09:47:38;5.93;;;1.58;;
14294;SDS011;7231;59.370;18.016;2022-08-21T09:50:12;4.00;;;1.30;;
14294;SDS011;7231;59.370;18.016;2022-08-21T09:52:46;7.90;;;1.55;;
14294;SDS011;7231;59.370;18.016;2022-08-21T09:55:23;6.82;;;1.55;;
14294;SDS011;7231;59.370;18.016;2022-08-21T09:58:16;5.45;;;1.63;;
14294;SDS011;7231;59.370;18.016;2022-08-21T10:00:56;6.25;;;2.22;;
14294;SDS011;7231;59.370;18.016;2022-08-21T10:03:26;5.70;;;1.95;;
14294;SDS011;7231;59.370;18.016;2022-08-21T10:05:57;3.47;;;1.38;;
14294;SDS011;7231;59.370;18.016;2022-08-21T10:08:28;5.03;;;1.60;;
14294;SDS011;7231;59.370;18.016;2022-08-21T10:11:01;6.25;;;1.33;;
14294;SDS011;7231;59.370;18.016;2022-08-21T10:13:36;3.58;;;1.50;;
14294;SDS011;7231;59.370;18.016;2022-08-21T10:16:18;6.97;;;1.63;;
14294;SDS011;7231;59.370;18.016;2022-08-21T10:19:00;5.20;;;1.90;;
14294;SDS011;7231;59.370;18.016;2022-08-21T10:21:35;5.22;;;1.05;;
14294;SDS011;7231;59.370;18.016;2022-08-21T10:24:17;3.95;;;1.52;;
14294;SDS011;7231;59.370;18.016;2022-08-21T10:27:02;4.22;;;1.13;;
14294;SDS011;7231;59.370;18.016;2022-08-21T10:29:42;5.07;;;1.35;;
14294;SDS011;7231;59.370;18.016;2022-08-21T10:32:19;4.63;;;1.60;;
14294;SDS011;7231;59.370;18.016;2022-08-21T10:35:00;6.85;;;1.92;;
14294;SDS011;7231;59.370;18.016;2022-08-21T10:37:42;3.70;;;1.20;;
14294;SDS011;7231;59.370;18.016;2022-08-21T10:40:21;5.53;;;1.50;;
14294;SDS011;7231;59.370;18.016;2022-08-21T10:43:02;5.55;;;1.55;;
14294;SDS011;7231;59.370;18.016;2022-08-21T10:45:42;5.22;;;1.58;;
14294;SDS011;7231;59.370;18.016;2022-08-21T10:48:22;2.67;;;1.27;;
14294;SDS011;7231;59.370;18.016;2022-08-21T10:50:59;3.55;;;1.20;;
14294;SDS011;7231;59.370;18.016;2022-08-21T10:53:36;5.10;;;1.80;;
14294;SDS011;7231;59.370;18.016;2022-08-21T10:56:16;4.43;;;1.30;;
14294;SDS011;7231;59.370;18.016;2022-08-21T10:58:51;4.95;;;1.63;;
14294;SDS011;7231;59.370;18.016;2022-08-21T11:01:32;4.18;;;1.13;;
14294;SDS011;7231;59.370;18.016;2022-08-21T11:04:09;4.40;;;1.17;;
14294;SDS011;7231;59.370;18.016;2022-08-21T11:06:43;2.97;;;1.30;;
14294;SDS011;7231;59.370;18.016;2022-08-21T11:09:18;5.65;;;1.55;;
14294;SDS011;7231;59.370;18.016;2022-08-21T11:11:50;3.30;;;1.40;;
14294;SDS011;7231;59.370;18.016;2022-08-21T11:14:38;3.45;;;1.20;;
14294;SDS011;7231;59.370;18.016;2022-08-21T11:17:16;4.50;;;1.20;;
14294;SDS011;7231;59.370;18.016;2022-08-21T11:19:50;4.47;;;1.58;;
14294;SDS011;7231;59.370;18.016;2022-08-21T11:22:26;5.18;;;1.50;;
14294;SDS011;7231;59.370;18.016;2022-08-21T11:25:06;5.85;;;1.40;;
14294;SDS011;7231;59.370;18.016;2022-08-21T11:27:39;4.07;;;1.40;;
14294;SDS011;7231;59.370;18.016;2022-08-21T11:30:12;4.35;;;1.20;;
14294;SDS011;7231;59.370;18.016;2022-08-21T11:32:45;4.88;;;1.48;;
14294;SDS011;7231;59.370;18.016;2022-08-21T11:35:27;5.28;;;1.70;;
14294;SDS011;7231;59.370;18.016;2022-08-21T11:38:09;2.90;;;1.20;;
14294;SDS011;7231;59.370;18.016;2022-08-21T11:41:02;5.93;;;1.58;;
14294;SDS011;7231;59.370;18.016;2022-08-21T11:43:38;2.58;;;1.08;;
14294;SDS011;7231;59.370;18.016;2022-08-21T11:46:12;5.90;;;1.67;;
14294;SDS011;7231;59.370;18.016;2022-08-21T11:48:51;2.95;;;1.20;;
14294;SDS011;7231;59.370;18.016;2022-08-21T11:51:31;4.25;;;1.40;;
14294;SDS011;7231;59.370;18.016;2022-08-21T11:54:05;3.70;;;1.30;;
14294;SDS011;7231;59.370;18.016;2022-08-21T11:56:41;4.13;;;1.63;;
14294;SDS011;7231;59.370;18.016;2022-08-21T11:59:16;4.38;;;1.30;;
14294;SDS011;7231;59.370;18.016;2022-08-21T12:01:48;3.00;;;1.20;;
14294;SDS011;7231;59.370;18.016;2022-08-21T12:04:22;2.92;;;1.00;;
14294;SDS011;7231;59.370;18.016;2022-08-21T12:06:55;4.60;;;1.35;;
14294;SDS011;7231;59.370;18.016;2022-08-21T12:09:31;2.95;;;1.27;;
14294;SDS011;7231;59.370;18.016;2022-08-21T12:12:05;5.13;;;1.58;;
14294;SDS011;7231;59.370;18.016;2022-08-21T12:14:39;3.65;;;1.40;;
14294;SDS011;7231;59.370;18.016;2022-08-21T12:17:17;5.75;;;1.50;;
14294;SDS011;7231;59.370;18.016;2022-08-21T12:19:56;5.35;;;1.80;;
14294;SDS011;7231;59.370;18.016;2022-08-21T12:22:35;4.35;;;1.40;;
14294;SDS011;7231;59.370;18.016;2022-08-21T12:25:07;3.95;;;1.58;;
14294;SDS011;7231;59.370;18.016;2022-08-21T12:27:49;3.92;;;1.10;;
14294;SDS011;7231;59.370;18.016;2022-08-21T12:30:21;2.10;;;0.80;;
14294;SDS011;7231;59.370;18.016;2022-08-21T12:33:02;3.08;;;0.85;;
14294;SDS011;7231;59.370;18.016;2022-08-21T12:35:32;2.45;;;0.90;;
14294;SDS011;7231;59.370;18.016;2022-08-21T12:38:06;2.58;;;0.93;;
14294;SDS011;7231;59.370;18.016;2022-08-21T12:40:40;2.17;;;0.90;;
14294;SDS011;7231;59.370;18.016;2022-08-21T12:43:13;3.65;;;1.15;;
14294;SDS011;7231;59.370;18.016;2022-08-21T12:45:46;1.55;;;0.70;;
14294;SDS011;7231;59.370;18.016;2022-08-21T12:48:18;1.45;;;0.65;;
14294;SDS011;7231;59.370;18.016;2022-08-21T12:50:52;2.60;;;0.90;;
14294;SDS011;7231;59.370;18.016;2022-08-21T12:53:27;2.38;;;1.00;;
14294;SDS011;7231;59.370;18.016;2022-08-21T12:56:09;2.38;;;0.95;;
14294;SDS011;7231;59.370;18.016;2022-08-21T12:58:40;1.52;;;0.68;;
14294;SDS011;7231;59.370;18.016;2022-08-21T13:01:13;3.45;;;1.00;;
14294;SDS011;7231;59.370;18.016;2022-08-21T13:03:46;2.00;;;1.48;;
14294;SDS011;7231;59.370;18.016;2022-08-21T13:06:32;2.05;;;0.90;;
14294;SDS011;7231;59.370;18.016;2022-08-21T13:09:07;2.40;;;1.10;;
14294;SDS011;7231;59.370;18.016;2022-08-21T13:11:38;2.22;;;0.95;;
14294;SDS011;7231;59.370;18.016;2022-08-21T13:14:13;1.35;;;0.70;;
14294;SDS011;7231;59.370;18.016;2022-08-21T13:16:46;1.30;;;0.85;;
14294;SDS011;7231;59.370;18.016;2022-08-21T13:19:16;1.55;;;0.60;;
14294;SDS011;7231;59.370;18.016;2022-08-21T13:21:50;1.73;;;0.80;;
14294;SDS011;7231;59.370;18.016;2022-08-21T13:24:19;1.23;;;0.70;;
14294;SDS011;7231;59.370;18.016;2022-08-21T13:27:20;0.95;;;0.75;;
14294;SDS011;7231;59.370;18.016;2022-08-21T13:30:10;1.67;;;0.77;;
14294;SDS011;7231;59.370;18.016;2022-08-21T13:32:41;3.70;;;1.58;;
14294;SDS011;7231;59.370;18.016;2022-08-21T13:35:14;3.00;;;1.40;;
14294;SDS011;7231;59.370;18.016;2022-08-21T13:37:46;2.97;;;1.00;;
14294;SDS011;7231;59.370;18.016;2022-08-21T13:40:18;2.28;;;0.70;;
14294;SDS011;7231;59.370;18.016;2022-08-21T13:42:50;1.85;;;0.88;;
14294;SDS011;7231;59.370;18.016;2022-08-21T13:45:25;1.70;;;0.90;;
14294;SDS011;7231;59.370;18.016;2022-08-21T13:47:55;3.33;;;0.88;;
14294;SDS011;7231;59.370;18.016;2022-08-21T13:50:24;4.55;;;1.15;;
14294;SDS011;7231;59.370;18.016;2022-08-21T13:53:00;1.50;;;0.70;;
14294;SDS011;7231;59.370;18.016;2022-08-21T13:55:34;2.28;;;0.90;;
14294;SDS011;7231;59.370;18.016;2022-08-21T13:58:06;2.47;;;0.95;;
14294;SDS011;7231;59.370;18.016;2022-08-21T14:00:43;1.92;;;0.90;;
14294;SDS011;7231;59.370;18.016;2022-08-21T14:03:15;3.10;;;1.10;;
14294;SDS011;7231;59.370;18.016;2022-08-21T14:05:55;1.70;;;0.85;;
14294;SDS011;7231;59.370;18.016;2022-08-21T14:08:27;3.45;;;1.27;;
14294;SDS011;7231;59.370;18.016;2022-08-21T14:10:59;2.03;;;0.90;;
14294;SDS011;7231;59.370;18.016;2022-08-21T14:13:36;1.63;;;0.90;;
14294;SDS011;7231;59.370;18.016;2022-08-21T14:16:14;1.55;;;0.70;;
14294;SDS011;7231;59.370;18.016;2022-08-21T14:18:48;2.75;;;1.10;;
14294;SDS011;7231;59.370;18.016;2022-08-21T14:21:28;2.97;;;0.80;;
14294;SDS011;7231;59.370;18.016;2022-08-21T14:24:01;1.45;;;0.70;;
14294;SDS011;7231;59.370;18.016;2022-08-21T14:26:31;2.70;;;0.93;;
14294;SDS011;7231;59.370;18.016;2022-08-21T14:29:02;1.33;;;0.70;;
14294;SDS011;7231;59.370;18.016;2022-08-21T14:31:38;2.22;;;0.60;;
14294;SDS011;7231;59.370;18.016;2022-08-21T14:34:09;2.75;;;1.05;;
14294;SDS011;7231;59.370;18.016;2022-08-21T14:36:45;2.25;;;1.00;;
14294;SDS011;7231;59.370;18.016;2022-08-21T14:39:14;3.00;;;0.80;;
14294;SDS011;7231;59.370;18.016;2022-08-21T14:41:42;1.92;;;0.93;;
14294;SDS011;7231;59.370;18.016;2022-08-21T14:44:14;4.80;;;1.00;;
14294;SDS011;7231;59.370;18.016;2022-08-21T14:46:45;1.40;;;0.77;;
14294;SDS011;7231;59.370;18.016;2022-08-21T14:49:22;3.05;;;1.10;;
14294;SDS011;7231;59.370;18.016;2022-08-21T14:51:53;2.92;;;1.00;;
14294;SDS011;7231;59.370;18.016;2022-08-21T14:54:24;1.73;;;0.80;;
14294;SDS011;7231;59.370;18.016;2022-08-21T14:56:57;2.70;;;0.88;;
14294;SDS011;7231;59.370;18.016;2022-08-21T14:59:27;2.05;;;0.70;;
14294;SDS011;7231;59.370;18.016;2022-08-21T15:01:57;2.00;;;0.75;;
14294;SDS011;7231;59.370;18.016;2022-08-21T15:04:25;2.33;;;0.82;;
14294;SDS011;7231;59.370;18.016;2022-08-21T15:06:53;3.78;;;0.88;;
14294;SDS011;7231;59.370;18.016;2022-08-21T15:09:21;2.60;;;1.00;;
14294;SDS011;7231;59.370;18.016;2022-08-21T15:11:50;2.70;;;0.80;;
14294;SDS011;7231;59.370;18.016;2022-08-21T15:14:20;2.78;;;1.00;;
14294;SDS011;7231;59.370;18.016;2022-08-21T15:16:54;1.40;;;1.05;;